Time;durP1;ratioP1;P1;durP2;ratioP2;P2;SDS_P1;SDS_P2;PMS_P1;PMS_P2;Temp;Humidity;BMP_temperature;BMP_pressure;BME280_temperature;BME280_humidity;BME280_pressure;Samples;Min_cycle;Max_cycle;Signal;HPM_P1;HPM_P2
2021/08/26 00:01:02;;;;;;;8.90;5.00;;;;;15.90;101317.00;;;;12872441;22;20257;-79
2021/08/26 00:06:04;;;;;;;5.33;3.97;;;;;15.90;101313.00;;;;12872731;22;20181;-79
2021/08/26 00:11:05;;;;;;;8.70;4.37;;;;;15.80;101311.00;;;;12896867;22;20173;-79
2021/08/26 00:16:07;;;;;;;6.23;3.93;;;;;15.70;101302.00;;;;12873373;22;20189;-79
2021/08/26 00:21:08;;;;;;;6.23;3.50;;;;;15.60;101299.00;;;;12945002;22;20162;-79
2021/08/26 00:26:10;;;;;;;7.20;5.60;;;;;15.60;101292.00;;;;12848407;22;20184;-79
2021/08/26 00:31:11;;;;;;;5.37;4.20;;;;;15.60;101288.00;;;;12849838;22;20174;-79
2021/08/26 00:36:12;;;;;;;7.07;4.90;;;;;15.50;101280.00;;;;12897238;22;20253;-79
2021/08/26 00:41:21;;;;;;;11.00;5.70;;;;;15.60;101277.00;;;;12897048;22;20605;-79
2021/08/26 00:46:25;;;;;;;9.43;5.60;;;;;15.60;101269.00;;;;12871659;22;20886;-79
2021/08/26 00:51:31;;;;;;;11.83;5.63;;;;;15.70;101273.00;;;;12874295;23;20204;-79
2021/08/26 00:56:32;;;;;;;11.23;8.23;;;;;15.70;101272.00;;;;12871321;22;20173;-79
2021/08/26 01:01:47;;;;;;;13.43;9.37;;;;;15.70;101273.00;;;;12921974;22;20169;-79
2021/08/26 01:07:05;;;;;;;17.03;8.67;;;;;15.70;101265.00;;;;12898576;22;20560;-80
2021/08/26 01:12:08;;;;;;;9.93;7.70;;;;;15.60;101269.00;;;;12898544;22;20228;-79
2021/08/26 01:17:17;;;;;;;9.47;7.37;;;;;15.50;101261.00;;;;12899052;22;20190;-80
2021/08/26 01:22:19;;;;;;;11.47;7.50;;;;;15.60;101241.00;;;;12900254;22;20165;-80
2021/08/26 01:27:21;;;;;;;10.00;7.70;;;;;15.50;101250.00;;;;12946263;22;20248;-80
2021/08/26 01:32:23;;;;;;;11.43;7.63;;;;;15.50;101253.00;;;;12898179;22;20275;-80
2021/08/26 01:37:25;;;;;;;9.17;6.27;;;;;15.50;101240.00;;;;12850204;22;20256;-80
2021/08/26 01:42:26;;;;;;;12.00;5.97;;;;;15.50;101235.00;;;;12874469;22;20184;-80
2021/08/26 01:47:27;;;;;;;14.93;8.00;;;;;15.60;101220.00;;;;12872909;23;20676;-80
2021/08/26 01:52:29;;;;;;;10.93;7.63;;;;;15.50;101227.00;;;;12898968;22;20239;-81
2021/08/26 01:57:32;;;;;;;13.80;8.13;;;;;15.60;101217.00;;;;12874360;22;20180;-79
2021/08/26 02:02:33;;;;;;;12.47;8.13;;;;;15.60;101209.00;;;;12875506;22;20169;-80
2021/08/26 02:07:34;;;;;;;9.73;7.87;;;;;15.60;101208.00;;;;12850773;22;20180;-80
2021/08/26 02:12:36;;;;;;;9.83;6.83;;;;;15.60;101209.00;;;;12876614;22;20253;-79
2021/08/26 02:17:37;;;;;;;13.53;7.60;;;;;15.60;101195.00;;;;12850116;22;20190;-80
2021/08/26 02:22:38;;;;;;;11.00;6.30;;;;;15.70;101197.00;;;;12872916;22;20181;-80
2021/08/26 02:27:40;;;;;;;11.97;6.80;;;;;15.70;101196.00;;;;12848490;22;20176;-80
2021/08/26 02:32:41;;;;;;;10.13;6.53;;;;;15.70;101186.00;;;;12897730;23;20200;-80
2021/08/26 02:37:42;;;;;;;8.40;5.47;;;;;15.70;101184.00;;;;12872388;22;20196;-80
2021/08/26 02:42:43;;;;;;;6.50;4.87;;;;;15.70;101186.00;;;;12872788;23;20197;-80
2021/08/26 02:47:44;;;;;;;9.30;5.33;;;;;15.70;101194.00;;;;12896547;22;20169;-79
2021/08/26 02:52:45;;;;;;;7.17;5.60;;;;;15.70;101191.00;;;;12895835;22;20220;-80
2021/08/26 02:57:47;;;;;;;7.13;5.37;;;;;15.70;101180.00;;;;12871576;22;20180;-80
2021/08/26 03:02:48;;;;;;;10.10;6.67;;;;;15.60;101192.00;;;;12872115;22;20280;-80
2021/08/26 03:07:49;;;;;;;4.40;4.00;;;;;15.70;101178.00;;;;12871824;22;20178;-80
2021/08/26 03:12:51;;;;;;;7.87;4.53;;;;;15.70;101177.00;;;;12898496;22;20283;-80
2021/08/26 03:17:52;;;;;;;4.63;3.93;;;;;15.60;101175.00;;;;12893945;22;20265;-80
2021/08/26 03:22:54;;;;;;;6.17;4.10;;;;;15.60;101191.00;;;;12917503;22;20805;-80
2021/08/26 03:27:55;;;;;;;7.17;3.80;;;;;15.60;101193.00;;;;12891106;22;20700;-79
2021/08/26 03:32:56;;;;;;;6.27;4.00;;;;;15.60;101186.00;;;;12841067;22;20219;-80
2021/08/26 03:37:58;;;;;;;3.83;3.20;;;;;15.50;101173.00;;;;12912186;22;20170;-80
2021/08/26 03:42:59;;;;;;;3.80;2.73;;;;;15.40;101166.00;;;;12865704;22;20174;-79
2021/08/26 03:48:01;;;;;;;5.57;3.17;;;;;15.40;101169.00;;;;12911888;22;20162;-80
2021/08/26 03:53:02;;;;;;;8.57;3.57;;;;;15.30;101166.00;;;;12865265;22;20630;-80
2021/08/26 03:58:04;;;;;;;6.97;3.70;;;;;15.30;101175.00;;;;12864263;22;20233;-80
2021/08/26 04:03:05;;;;;;;7.00;4.63;;;;;15.30;101176.00;;;;12865204;22;20252;-79
2021/08/26 04:08:06;;;;;;;8.30;5.00;;;;;15.30;101178.00;;;;12840959;22;20181;-79
2021/08/26 04:13:08;;;;;;;13.77;5.07;;;;;15.30;101180.00;;;;12865674;22;20189;-79
2021/08/26 04:18:09;;;;;;;8.87;5.40;;;;;15.30;101180.00;;;;12864222;22;20524;-79
2021/08/26 04:23:10;;;;;;;11.47;5.67;;;;;15.30;101176.00;;;;12841001;22;20544;-80
2021/08/26 04:28:11;;;;;;;10.83;6.00;;;;;15.30;101181.00;;;;12840324;22;20185;-79
2021/08/26 04:33:13;;;;;;;14.63;6.40;;;;;15.20;101167.00;;;;12840841;22;20220;-79
2021/08/26 04:38:15;;;;;;;13.30;6.13;;;;;15.20;101177.00;;;;12863577;22;20184;-79
2021/08/26 04:43:16;;;;;;;14.73;7.33;;;;;15.20;101174.00;;;;12866335;22;20789;-80
2021/08/26 04:48:17;;;;;;;13.20;6.93;;;;;15.20;101179.00;;;;12890667;22;20211;-80
2021/08/26 04:53:18;;;;;;;10.47;6.37;;;;;15.20;101177.00;;;;12889930;22;20204;-79
2021/08/26 04:58:19;;;;;;;9.60;5.90;;;;;15.20;101183.00;;;;12840250;22;20180;-80
2021/08/26 05:03:20;;;;;;;9.97;5.47;;;;;15.10;101178.00;;;;12891038;22;20492;-80
2021/08/26 05:08:22;;;;;;;10.03;4.97;;;;;15.10;101194.00;;;;12843266;22;20185;-80
2021/08/26 05:13:25;;;;;;;11.27;5.10;;;;;15.20;101186.00;;;;12916969;22;20197;-80
2021/08/26 05:18:26;;;;;;;10.67;4.70;;;;;15.20;101191.00;;;;12937474;22;20190;-80
2021/08/26 05:23:29;;;;;;;10.40;5.10;;;;;15.30;101187.00;;;;12866764;22;20872;-80
2021/08/26 05:28:30;;;;;;;11.20;4.90;;;;;15.30;101185.00;;;;12891718;22;20181;-80
2021/08/26 05:33:31;;;;;;;12.73;4.70;;;;;15.40;101188.00;;;;12890812;22;20197;-80
2021/08/26 05:38:33;;;;;;;10.13;4.07;;;;;15.40;101194.00;;;;12842801;22;20240;-79
2021/08/26 05:43:34;;;;;;;11.43;4.97;;;;;15.50;101199.00;;;;12891844;22;20220;-80
2021/08/26 05:48:35;;;;;;;9.47;4.50;;;;;15.50;101201.00;;;;12866555;22;20177;-80
2021/08/26 05:53:36;;;;;;;8.37;4.13;;;;;15.60;101205.00;;;;12891774;22;20193;-80
2021/08/26 05:58:37;;;;;;;9.40;4.27;;;;;15.70;101194.00;;;;12891638;22;20264;-79
2021/08/26 06:03:38;;;;;;;11.73;4.10;;;;;15.80;101205.00;;;;12866975;22;20189;-80
2021/08/26 06:08:40;;;;;;;13.00;5.03;;;;;15.90;101215.00;;;;12868390;22;20173;-80
2021/08/26 06:13:41;;;;;;;12.70;5.70;;;;;16.10;101221.00;;;;12867683;22;20201;-80
2021/08/26 06:18:42;;;;;;;10.60;4.90;;;;;16.20;101230.00;;;;12866407;22;20193;-79
2021/08/26 06:23:44;;;;;;;11.10;4.47;;;;;16.10;101236.00;;;;12867758;22;20212;-79
2021/08/26 06:28:45;;;;;;;12.57;4.37;;;;;16.00;101252.00;;;;12891267;22;20177;-80
2021/08/26 06:33:46;;;;;;;15.37;4.43;;;;;16.00;101251.00;;;;12867295;22;20194;-80
2021/08/26 06:38:47;;;;;;;10.97;4.60;;;;;16.20;101251.00;;;;12867297;22;20240;-79
2021/08/26 06:43:48;;;;;;;14.17;4.83;;;;;16.30;101255.00;;;;12865930;22;20602;-80
2021/08/26 06:48:51;;;;;;;7.80;4.07;;;;;16.50;101264.00;;;;12866271;22;20174;-79
2021/08/26 06:53:52;;;;;;;14.93;4.33;;;;;16.80;101255.00;;;;12867302;22;20276;-80
2021/08/26 06:58:53;;;;;;;12.93;4.40;;;;;17.00;101276.00;;;;12866499;22;20173;-79
2021/08/26 07:03:54;;;;;;;12.37;4.70;;;;;17.20;101260.00;;;;12865275;22;20169;-79
2021/08/26 07:08:55;;;;;;;12.68;4.45;;;;;17.60;101265.00;;;;12865127;22;20660;-79
2021/08/26 07:13:57;;;;;;;14.68;5.30;;;;;17.80;101263.00;;;;12864805;22;20204;-79
2021/08/26 07:18:58;;;;;;;13.73;5.40;;;;;17.80;101274.00;;;;12890233;22;20848;-79
2021/08/26 07:23:59;;;;;;;15.85;4.97;;;;;17.90;101265.00;;;;12865592;22;20173;-79
2021/08/26 07:29:01;;;;;;;10.20;4.43;;;;;18.00;101273.00;;;;12866300;22;20174;-78
2021/08/26 07:34:02;;;;;;;15.18;5.30;;;;;17.60;101276.00;;;;12890099;22;20203;-79
2021/08/26 07:39:04;;;;;;;9.95;3.80;;;;;17.40;101270.00;;;;12864996;22;20224;-79
2021/08/26 07:44:05;;;;;;;9.50;3.28;;;;;17.30;101255.00;;;;12865133;22;20169;-79
2021/08/26 07:49:07;;;;;;;11.98;4.45;;;;;17.80;101262.00;;;;12888435;22;20176;-79
2021/08/26 07:54:09;;;;;;;12.73;4.20;;;;;18.50;101244.00;;;;12865691;22;20301;-79
2021/08/26 07:59:10;;;;;;;14.70;3.85;;;;;18.40;101244.00;;;;12867145;22;20231;-79
2021/08/26 08:04:11;;;;;;;15.30;3.60;;;;;18.70;101236.00;;;;12892889;22;20181;-79
2021/08/26 08:09:12;;;;;;;10.02;3.55;;;;;18.80;101243.00;;;;12891685;22;20170;-79
2021/08/26 08:14:13;;;;;;;12.95;3.92;;;;;18.70;101238.00;;;;12843912;22;20197;-79
2021/08/26 08:19:14;;;;;;;13.48;3.60;;;;;18.10;101240.00;;;;12892701;22;20553;-79
2021/08/26 08:24:16;;;;;;;12.23;3.85;;;;;17.40;101238.00;;;;12844535;22;20223;-79
2021/08/26 08:29:17;;;;;;;12.45;3.35;;;;;17.20;101233.00;;;;12912403;22;20170;-79
2021/08/26 08:34:18;;;;;;;12.70;2.72;;;;;16.80;101230.00;;;;12938743;22;20181;-79
2021/08/26 08:39:21;;;;;;;12.75;3.50;;;;;16.50;101230.00;;;;12893113;22;20196;-80
2021/08/26 08:44:22;;;;;;;14.30;4.60;;;;;16.30;101215.00;;;;12868414;22;20169;-79
2021/08/26 08:49:24;;;;;;;9.93;3.63;;;;;16.90;101225.00;;;;12892045;22;20249;-80
2021/08/26 08:54:26;;;;;;;11.70;3.90;;;;;17.40;101221.00;;;;12866889;22;20202;-80
2021/08/26 08:59:29;;;;;;;8.40;3.13;;;;;17.80;101223.00;;;;12891505;22;20196;-80
2021/08/26 09:04:30;;;;;;;15.23;3.58;;;;;18.20;101220.00;;;;12867920;22;20688;-79
2021/08/26 09:09:50;;;;;;;10.80;2.85;;;;;18.80;101222.00;;;;12868578;23;20170;-80
2021/08/26 09:15:07;;;;;;;7.57;2.50;;;;;19.20;101224.00;;;;12866709;22;20201;-80
2021/08/26 09:20:11;;;;;;;11.15;3.13;;;;;18.90;101217.00;;;;12889759;22;20197;-80
2021/08/26 09:25:22;;;;;;;10.70;2.80;;;;;18.30;101217.00;;;;12892325;22;20165;-79
2021/08/26 09:30:23;;;;;;;9.90;3.30;;;;;17.90;101222.00;;;;12842167;22;20178;-79
2021/08/26 09:35:29;;;;;;;12.27;2.50;;;;;17.70;101214.00;;;;12843811;22;20194;-79
2021/08/26 09:40:32;;;;;;;6.80;2.40;;;;;18.40;101218.00;;;;12869858;22;20178;-79
2021/08/26 09:45:39;;;;;;;8.20;2.47;;;;;18.80;101226.00;;;;12869880;22;20170;-80
2021/08/26 09:50:45;;;;;;;7.88;2.45;;;;;19.10;101218.00;;;;12870774;23;20829;-79
2021/08/26 09:55:49;;;;;;;7.47;2.70;;;;;19.60;101224.00;;;;12870065;22;20200;-79
2021/08/26 10:01:05;;;;;;;8.18;2.10;;;;;20.10;101217.00;;;;12868122;22;20264;-79
2021/08/26 10:06:06;;;;;;;7.03;2.40;;;;;20.50;101220.00;;;;12893945;22;20207;-79
2021/08/26 10:11:10;;;;;;;5.75;2.28;;;;;20.70;101216.00;;;;12870071;22;20252;-80
2021/08/26 10:16:12;;;;;;;5.95;1.80;;;;;20.60;101221.00;;;;12893921;22;20202;-80
2021/08/26 10:21:14;;;;;;;4.03;2.00;;;;;20.40;101218.00;;;;12870306;22;20180;-79
2021/08/26 10:26:18;;;;;;;3.25;1.42;;;;;19.80;101218.00;;;;12895333;22;20636;-80
2021/08/26 10:31:32;;;;;;;2.75;1.55;;;;;19.50;101219.00;;;;12870608;22;20173;-80
2021/08/26 10:36:45;;;;;;;6.63;1.83;;;;;19.60;101212.00;;;;12846906;22;20178;-80
2021/08/26 10:41:46;;;;;;;6.18;1.58;;;;;19.70;101217.00;;;;12894385;22;20200;-80
2021/08/26 10:46:56;;;;;;;5.78;2.00;;;;;19.50;101221.00;;;;12868756;22;20610;-79
2021/08/26 10:51:57;;;;;;;8.35;2.20;;;;;19.50;101211.00;;;;12868982;22;20185;-80
2021/08/26 10:57:23;;;;;;;7.75;1.80;;;;;19.40;101218.00;;;;12844756;22;20185;-79
2021/08/26 11:02:41;;;;;;;8.63;1.80;;;;;19.10;101209.00;;;;12868412;22;20178;-79
2021/08/26 11:07:43;;;;;;;7.90;1.75;;;;;18.60;101212.00;;;;12893851;22;20168;-80
2021/08/26 11:12:44;;;;;;;7.78;2.03;;;;;18.10;101226.00;;;;12916829;23;20197;-80
2021/08/26 11:17:46;;;;;;;6.22;1.90;;;;;17.70;101223.00;;;;12891853;22;20517;-80
2021/08/26 11:23:08;;;;;;;5.57;2.20;;;;;17.70;101230.00;;;;12892333;22;20180;-79
2021/08/26 11:28:30;;;;;;;3.83;1.38;;;;;18.10;101219.00;;;;12893606;22;20228;-80
2021/08/26 11:33:31;;;;;;;3.40;1.27;;;;;19.20;101214.00;;;;12870880;22;20193;-80
2021/08/26 11:38:48;;;;;;;3.72;1.08;;;;;20.50;101213.00;;;;12895357;22;20173;-79
2021/08/26 11:43:50;;;;;;;4.30;1.50;;;;;21.70;101204.00;;;;12844055;22;20181;-80
2021/08/26 11:48:54;;;;;;;5.75;1.50;;;;;21.40;101212.00;;;;12895845;22;20173;-79
2021/08/26 11:54:09;;;;;;;2.97;1.10;;;;;21.60;101197.00;;;;12869730;22;20228;-79
2021/08/26 11:59:28;;;;;;;7.68;1.70;;;;;21.70;101192.00;;;;12868937;22;20609;-79
2021/08/26 12:04:34;;;;;;;5.18;1.73;;;;;21.30;101192.00;;;;12870143;22;20177;-79
2021/08/26 12:09:37;;;;;;;2.38;0.90;;;;;20.70;101195.00;;;;12869372;22;20221;-79
2021/08/26 12:14:40;;;;;;;2.75;1.02;;;;;21.10;101196.00;;;;12869337;22;20208;-80
2021/08/26 12:19:43;;;;;;;2.65;0.93;;;;;21.40;101204.00;;;;12915853;22;20197;-80
2021/08/26 12:25:01;;;;;;;5.47;1.35;;;;;22.00;101195.00;;;;12920126;22;20201;-80
2021/08/26 12:30:02;;;;;;;3.58;1.30;;;;;22.20;101190.00;;;;12894438;22;20716;-80
2021/08/26 12:35:19;;;;;;;3.95;1.60;;;;;22.20;101197.00;;;;12893916;22;20197;-79
2021/08/26 12:40:21;;;;;;;2.80;1.42;;;;;21.50;101196.00;;;;12883720;22;20181;-79
2021/08/26 12:45:23;;;;;;;3.92;1.50;;;;;21.20;101190.00;;;;12939548;22;20177;-80
2021/08/26 12:50:33;;;;;;;3.58;1.30;;;;;21.50;101183.00;;;;12872527;22;20179;-80
2021/08/26 12:55:34;;;;;;;4.53;1.42;;;;;22.30;101175.00;;;;12868987;22;20204;-81
2021/08/26 13:00:40;;;;;;;3.22;1.10;;;;;22.30;101173.00;;;;12867286;22;20189;-79
2021/08/26 13:05:50;;;;;;;5.00;1.58;;;;;21.70;101175.00;;;;12872083;22;20177;-79
2021/08/26 13:10:51;;;;;;;3.65;1.35;;;;;21.60;101181.00;;;;12893596;22;20169;-80
2021/08/26 13:15:52;;;;;;;4.45;1.58;;;;;21.70;101176.00;;;;12867905;22;20198;-79
2021/08/26 13:20:53;;;;;;;5.22;1.60;;;;;21.50;101180.00;;;;12894045;22;20176;-81
2021/08/26 13:25:54;;;;;;;4.90;1.85;;;;;20.40;101190.00;;;;12845229;22;20256;-79
2021/08/26 13:30:55;;;;;;;5.90;2.03;;;;;19.60;101185.00;;;;12917961;22;20166;-80
2021/08/26 13:35:57;;;;;;;3.53;1.73;;;;;19.10;101180.00;;;;12893854;22;20193;-79
2021/08/26 13:40:58;;;;;;;6.57;1.83;;;;;19.10;101178.00;;;;12894727;22;20170;-79
2021/08/26 13:45:59;;;;;;;5.30;2.25;;;;;20.10;101173.00;;;;12917657;22;20173;-79
2021/08/26 13:51:02;;;;;;;8.70;2.95;;;;;20.90;101168.00;;;;12891471;22;20165;-80
2021/08/26 13:56:03;;;;;;;6.93;2.35;;;;;21.40;101162.00;;;;12854014;22;20723;-79
2021/08/26 14:01:04;;;;;;;5.03;1.88;;;;;21.50;101169.00;;;;12869586;23;20165;-80
2021/08/26 14:06:09;;;;;;;6.35;2.53;;;;;21.90;101149.00;;;;12896753;22;20173;-80
2021/08/26 14:11:10;;;;;;;4.80;2.67;;;;;22.50;101160.00;;;;12894518;22;20165;-80
2021/08/26 14:16:13;;;;;;;6.60;2.70;;;;;22.50;101159.00;;;;12868815;22;20205;-80
2021/08/26 14:21:15;;;;;;;6.78;2.28;;;;;23.00;101142.00;;;;12869355;22;20177;-80
2021/08/26 14:26:16;;;;;;;7.63;2.60;;;;;22.40;101148.00;;;;12892391;22;20227;-81
2021/08/26 14:31:17;;;;;;;11.18;2.83;;;;;23.10;101141.00;;;;12892058;22;20176;-79
2021/08/26 14:36:19;;;;;;;4.03;1.92;;;;;22.40;101138.00;;;;12866412;22;20201;-80
2021/08/26 14:41:20;;;;;;;6.57;2.42;;;;;20.80;101142.00;;;;12866126;22;20173;-81
2021/08/26 14:46:21;;;;;;;6.28;2.53;;;;;19.80;101124.00;;;;12865105;22;20181;-80
2021/08/26 14:51:22;;;;;;;7.22;2.72;;;;;19.40;101131.00;;;;12866715;22;20180;-80
2021/08/26 14:56:24;;;;;;;5.30;2.70;;;;;18.90;101129.00;;;;12888977;22;20205;-79
2021/08/26 15:01:25;;;;;;;5.10;2.13;;;;;19.30;101138.00;;;;12858195;22;20190;-80
2021/08/26 15:06:27;;;;;;;6.88;2.67;;;;;19.00;101147.00;;;;12842834;22;20612;-78
2021/08/26 15:11:28;;;;;;;11.98;4.00;;;;;18.30;101155.00;;;;12859377;22;20177;-80
2021/08/26 15:16:29;;;;;;;11.95;3.47;;;;;18.00;101146.00;;;;12889370;22;20208;-80
2021/08/26 15:21:30;;;;;;;12.23;4.20;;;;;18.20;101142.00;;;;12843793;22;20173;-81
2021/08/26 15:26:32;;;;;;;9.07;3.55;;;;;18.50;101141.00;;;;12844101;22;20181;-80
2021/08/26 15:31:37;;;;;;;16.73;4.07;;;;;18.90;101136.00;;;;12942666;22;20193;-80
2021/08/26 15:36:38;;;;;;;11.75;3.75;;;;;19.10;101125.00;;;;12872383;22;21011;-80
2021/08/26 15:41:42;;;;;;;10.57;4.20;;;;;18.60;101131.00;;;;12846463;22;20177;-80
2021/08/26 15:46:47;;;;;;;11.32;3.80;;;;;18.30;101130.00;;;;12868011;22;20173;-79
2021/08/26 15:51:55;;;;;;;16.13;4.57;;;;;18.30;101122.00;;;;12869164;22;20177;-79
2021/08/26 16:02:10;;;;;;;12.18;4.00;;;;;18.60;101127.00;;;;12895365;22;20180;-80
2021/08/26 16:07:12;;;;;;;14.38;4.30;;;;;18.70;101122.00;;;;12866473;22;20224;-79
2021/08/26 16:12:13;;;;;;;15.73;4.38;;;;;18.40;101129.00;;;;12894150;22;20186;-79
2021/08/26 16:17:14;;;;;;;11.20;3.47;;;;;18.30;101129.00;;;;12867834;22;20243;-79
2021/08/26 16:22:15;;;;;;;13.40;3.90;;;;;18.40;101139.00;;;;12869402;22;20239;-79
2021/08/26 16:27:17;;;;;;;15.48;4.40;;;;;18.60;101140.00;;;;12868062;22;20175;-79
2021/08/26 16:32:19;;;;;;;9.57;2.70;;;;;18.50;101142.00;;;;12867072;22;20248;-79
2021/08/26 16:37:21;;;;;;;7.95;2.90;;;;;18.50;101135.00;;;;12893649;22;20181;-80
2021/08/26 16:42:22;;;;;;;5.05;2.00;;;;;18.80;101133.00;;;;12842316;22;20179;-78
2021/08/26 16:47:23;;;;;;;5.60;2.50;;;;;18.80;101133.00;;;;12866155;22;20173;-79
2021/08/26 16:52:24;;;;;;;5.28;2.90;;;;;18.90;101116.00;;;;12868026;22;20247;-79
2021/08/26 16:57:26;;;;;;;10.30;2.88;;;;;18.80;101126.00;;;;12866028;22;20182;-79
2021/08/26 17:02:27;;;;;;;14.48;3.97;;;;;18.70;101140.00;;;;12891255;22;20232;-79
2021/08/26 17:07:29;;;;;;;9.57;3.72;;;;;18.60;101135.00;;;;12865207;22;20197;-79
2021/08/26 17:12:31;;;;;;;9.73;3.78;;;;;18.20;101136.00;;;;12865898;22;20276;-80
2021/08/26 17:17:33;;;;;;;16.63;4.68;;;;;18.00;101137.00;;;;12863893;22;20259;-78
2021/08/26 17:22:34;;;;;;;16.13;4.45;;;;;17.90;101130.00;;;;12861476;22;20264;-79
2021/08/26 17:27:37;;;;;;;18.30;5.25;;;;;17.90;101140.00;;;;12885020;22;20177;-79
2021/08/26 17:32:38;;;;;;;15.80;5.47;;;;;17.70;101137.00;;;;12885720;22;20202;-79
2021/08/26 17:37:43;;;;;;;21.17;6.30;;;;;17.60;101146.00;;;;12861713;22;20185;-79
2021/08/26 17:42:44;;;;;;;20.15;5.43;;;;;17.60;101135.00;;;;12868432;22;20225;-79
2021/08/26 17:47:47;;;;;;;18.58;5.28;;;;;17.40;101133.00;;;;12892561;22;20169;-79
2021/08/26 17:52:48;;;;;;;16.83;5.28;;;;;17.10;101130.00;;;;12891514;22;20198;-79
2021/08/26 17:57:49;;;;;;;19.83;6.13;;;;;17.00;101139.00;;;;12868281;22;20174;-79
2021/08/26 18:02:50;;;;;;;20.02;6.43;;;;;17.00;101134.00;;;;12893424;22;20205;-79
2021/08/26 18:07:54;;;;;;;23.95;7.63;;;;;16.90;101148.00;;;;12867632;22;20546;-79
2021/08/26 18:12:56;;;;;;;15.50;6.07;;;;;16.80;101150.00;;;;12892818;22;20227;-79
2021/08/26 18:17:58;;;;;;;19.03;8.13;;;;;16.70;101151.00;;;;12894394;22;20193;-79
2021/08/26 18:22:59;;;;;;;18.00;6.97;;;;;16.70;101148.00;;;;12893109;22;20632;-79
2021/08/26 18:28:02;;;;;;;19.57;7.87;;;;;16.70;101158.00;;;;12892329;22;20175;-79
2021/08/26 18:33:04;;;;;;;20.52;6.60;;;;;16.60;101164.00;;;;12867290;22;20190;-79
2021/08/26 18:38:05;;;;;;;21.40;7.10;;;;;16.60;101164.00;;;;12869361;22;20261;-79
2021/08/26 18:43:06;;;;;;;18.13;7.07;;;;;16.60;101166.00;;;;12892871;22;20185;-78
2021/08/26 18:48:07;;;;;;;25.87;8.50;;;;;16.50;101165.00;;;;12867695;22;20173;-78
2021/08/26 18:53:08;;;;;;;23.63;7.80;;;;;16.50;101170.00;;;;12892168;22;20193;-78
2021/08/26 18:58:10;;;;;;;28.60;9.97;;;;;16.50;101182.00;;;;12892243;22;20816;-78
2021/08/26 19:03:11;;;;;;;22.20;8.00;;;;;16.40;101181.00;;;;12866858;22;20170;-78
2021/08/26 19:08:16;;;;;;;25.87;9.00;;;;;16.30;101182.00;;;;12937199;22;20652;-78
2021/08/26 19:13:18;;;;;;;20.07;8.20;;;;;16.10;101182.00;;;;12891163;22;20185;-79
2021/08/26 19:18:21;;;;;;;22.93;9.60;;;;;16.00;101171.00;;;;12891550;22;20200;-78
2021/08/26 19:23:22;;;;;;;23.70;8.97;;;;;15.90;101193.00;;;;12891168;22;20227;-78
2021/08/26 19:28:24;;;;;;;22.07;7.93;;;;;15.80;101193.00;;;;12913272;22;20169;-79
2021/08/26 19:33:25;;;;;;;27.20;9.87;;;;;15.70;101197.00;;;;12891107;22;20193;-79
2021/08/26 19:38:26;;;;;;;25.73;9.07;;;;;15.60;101194.00;;;;12866712;22;20177;-78
2021/08/26 19:43:27;;;;;;;21.57;9.37;;;;;15.60;101192.00;;;;12890958;22;20169;-78
2021/08/26 19:48:28;;;;;;;26.37;10.70;;;;;15.70;101194.00;;;;12867039;22;20173;-78
2021/08/26 19:53:30;;;;;;;29.63;9.40;;;;;15.70;101209.00;;;;12869303;22;20193;-78
2021/08/26 19:58:31;;;;;;;26.00;9.80;;;;;15.80;101213.00;;;;12919888;22;20181;-79
2021/08/26 20:03:32;;;;;;;30.00;10.60;;;;;15.80;101201.00;;;;12869743;22;20228;-79
2021/08/26 20:08:34;;;;;;;27.97;10.07;;;;;15.80;101198.00;;;;12894793;22;20169;-78
2021/08/26 20:13:35;;;;;;;24.47;10.23;;;;;15.90;101210.00;;;;12893918;22;20201;-79
2021/08/26 20:18:36;;;;;;;25.53;10.17;;;;;15.90;101210.00;;;;12893445;22;20193;-79
2021/08/26 20:23:38;;;;;;;35.60;11.63;;;;;15.90;101212.00;;;;12869771;22;20180;-79
2021/08/26 20:28:39;;;;;;;32.43;10.53;;;;;15.90;101216.00;;;;12893558;22;20174;-79
2021/08/26 20:33:40;;;;;;;25.77;10.43;;;;;16.00;101215.00;;;;12869544;22;20205;-79
2021/08/26 20:38:41;;;;;;;27.47;10.37;;;;;16.00;101219.00;;;;12892186;22;20169;-79
2021/08/26 20:43:42;;;;;;;25.90;10.07;;;;;16.00;101218.00;;;;12913626;22;20165;-79
2021/08/26 20:48:44;;;;;;;31.00;9.97;;;;;16.00;101218.00;;;;12893741;22;20667;-78
2021/08/26 20:53:45;;;;;;;25.03;11.17;;;;;16.00;101226.00;;;;12843024;22;20236;-78
2021/08/26 20:58:49;;;;;;;28.17;10.57;;;;;16.00;101231.00;;;;12844133;22;20844;-78
2021/08/26 21:03:50;;;;;;;35.77;11.27;;;;;15.90;101230.00;;;;12891927;22;20252;-79
2021/08/26 21:08:51;;;;;;;27.90;11.63;;;;;15.90;101235.00;;;;12892729;22;20204;-79
2021/08/26 21:13:52;;;;;;;27.97;10.30;;;;;15.80;101237.00;;;;12868666;22;20216;-79
2021/08/26 21:18:54;;;;;;;24.70;10.23;;;;;15.70;101229.00;;;;12845287;23;20193;-78
2021/08/26 21:24:01;;;;;;;31.17;11.00;;;;;15.70;101239.00;;;;12939768;22;20534;-78
2021/08/26 21:29:02;;;;;;;24.73;10.03;;;;;15.70;101241.00;;;;12939105;22;20240;-79
2021/08/26 21:34:04;;;;;;;25.60;8.73;;;;;15.70;101247.00;;;;12867432;22;20192;-79
2021/08/26 21:39:05;;;;;;;20.70;8.27;;;;;15.70;101257.00;;;;12869744;22;20173;-79
2021/08/26 21:44:07;;;;;;;18.23;7.67;;;;;15.70;101271.00;;;;12868466;22;20181;-78
2021/08/26 21:49:08;;;;;;;27.97;9.43;;;;;15.70;101261.00;;;;12868840;22;20177;-78
2021/08/26 21:54:10;;;;;;;19.43;7.93;;;;;15.70;101269.00;;;;12868509;22;20276;-79
2021/08/26 21:59:11;;;;;;;22.80;7.80;;;;;15.70;101280.00;;;;12892535;22;20181;-78
2021/08/26 22:04:12;;;;;;;26.03;7.27;;;;;15.70;101290.00;;;;12865273;22;20244;-78
2021/08/26 22:09:13;;;;;;;23.77;6.53;;;;;15.70;101295.00;;;;12867393;22;20256;-79
2021/08/26 22:14:15;;;;;;;21.50;7.17;;;;;15.60;101312.00;;;;12868029;22;20208;-79
2021/08/26 22:19:16;;;;;;;21.07;6.53;;;;;15.60;101307.00;;;;12891302;22;20185;-78
2021/08/26 22:24:18;;;;;;;21.63;6.50;;;;;15.50;101304.00;;;;12866713;22;20173;-78
2021/08/26 22:29:19;;;;;;;20.33;6.40;;;;;15.40;101312.00;;;;12892825;22;20174;-78
2021/08/26 22:34:20;;;;;;;21.13;6.70;;;;;15.30;101314.00;;;;12891112;22;20281;-78
2021/08/26 22:39:22;;;;;;;17.30;5.73;;;;;15.20;101320.00;;;;12867444;22;20173;-78
2021/08/26 22:44:23;;;;;;;15.23;5.53;;;;;15.10;101331.00;;;;12868812;22;20170;-78
2021/08/26 22:49:24;;;;;;;17.30;4.97;;;;;15.00;101340.00;;;;12870723;22;20184;-79
2021/08/26 22:54:25;;;;;;;15.60;3.90;;;;;14.80;101347.00;;;;12868758;22;20193;-78
2021/08/26 22:59:27;;;;;;;12.13;3.97;;;;;14.70;101340.00;;;;12893270;22;20170;-79
2021/08/26 23:04:28;;;;;;;7.57;3.10;;;;;14.60;101345.00;;;;12869458;22;20174;-79
2021/08/26 23:09:30;;;;;;;10.93;2.67;;;;;14.50;101350.00;;;;12869249;22;20181;-78
2021/08/26 23:14:31;;;;;;;10.83;2.87;;;;;14.50;101352.00;;;;12918653;22;20619;-78
2021/08/26 23:19:32;;;;;;;8.53;2.87;;;;;14.40;101356.00;;;;12866566;22;20194;-78
2021/08/26 23:24:34;;;;;;;9.27;3.33;;;;;14.30;101348.00;;;;12892822;22;20537;-78
2021/08/26 23:29:35;;;;;;;8.97;2.60;;;;;14.20;101349.00;;;;12871539;22;20177;-78
2021/08/26 23:34:37;;;;;;;8.50;2.37;;;;;14.00;101348.00;;;;12867600;22;20683;-78
2021/08/26 23:39:38;;;;;;;12.43;3.10;;;;;13.90;101350.00;;;;12869256;22;20176;-78
2021/08/26 23:44:39;;;;;;;9.57;3.60;;;;;13.70;101338.00;;;;12845948;22;20181;-78
2021/08/26 23:49:41;;;;;;;13.97;3.70;;;;;13.60;101333.00;;;;12870250;22;20166;-78
2021/08/26 23:54:42;;;;;;;14.40;4.07;;;;;13.50;101320.00;;;;12845063;22;20201;-78
2021/08/26 23:59:43;;;;;;;11.97;3.73;;;;;13.50;101321.00;;;;12871630;22;20842;-79
